createdAt,value
2022-11-29T00:00:22.156Z,20.21
2022-11-29T00:02:58.984Z,19.23
2022-11-29T00:05:40.494Z,20.96
2022-11-29T00:08:20.861Z,21.25
2022-11-29T00:21:32.852Z,22.13
2022-11-29T00:24:07.172Z,22.44
2022-11-29T00:26:40.848Z,22.75
2022-11-29T00:29:14.723Z,22.36
2022-11-29T00:31:48.877Z,21.55
2022-11-29T00:48:25.844Z,24.05
2022-11-29T00:51:05.852Z,23.38
2022-11-29T00:53:39.220Z,23.67
2022-11-29T00:56:13.857Z,23.59
2022-11-29T00:58:53.926Z,23.47
2022-11-29T01:01:33.893Z,24.58
2022-11-29T01:04:09.048Z,25.04
2022-11-29T01:13:44.859Z,25.29
2022-11-29T01:16:18.252Z,24.94
2022-11-29T01:18:51.858Z,25.38
2022-11-29T01:21:27.125Z,24.97
2022-11-29T01:24:00.843Z,25.26
2022-11-29T01:26:34.160Z,26.10
2022-11-29T01:29:07.845Z,26.06
2022-11-29T01:42:20.865Z,26.66
2022-11-29T01:45:15.056Z,24.90
2022-11-29T01:47:59.453Z,26.02
2022-11-29T01:50:33.067Z,25.02
2022-11-29T01:53:06.829Z,25.22
2022-11-29T02:07:07.902Z,25.52
2022-11-29T02:09:43.116Z,25.57
2022-11-29T02:12:32.848Z,25.16
2022-11-29T02:15:33.091Z,24.31
2022-11-29T02:18:17.879Z,24.65
2022-11-29T02:21:30.420Z,24.53
2022-11-29T02:35:02.805Z,23.60
2022-11-29T02:38:27.829Z,24.13
2022-11-29T02:41:36.529Z,24.06
2022-11-29T02:44:54.834Z,24.28
2022-11-29T02:47:47.328Z,24.42
2022-11-29T03:01:02.942Z,23.44
2022-11-29T03:03:52.818Z,23.62
2022-11-29T03:06:40.450Z,23.32
2022-11-29T03:09:34.834Z,22.29
2022-11-29T03:12:25.388Z,22.81
2022-11-29T03:28:56.827Z,22.96
2022-11-29T03:31:36.716Z,22.56
2022-11-29T03:34:33.808Z,23.24
2022-11-29T03:37:17.117Z,23.06
2022-11-29T03:40:02.821Z,23.59
2022-11-29T03:42:47.196Z,23.41
2022-11-29T03:55:59.775Z,24.39
2022-11-29T03:59:00.828Z,23.62
2022-11-29T04:02:07.865Z,23.28
2022-11-29T04:05:36.816Z,23.34
2022-11-29T04:08:47.712Z,24.14
2022-11-29T04:22:33.776Z,23.74
2022-11-29T04:25:57.830Z,23.66
2022-11-29T04:29:07.717Z,22.60
2022-11-29T04:32:19.805Z,23.05
2022-11-29T04:49:30.787Z,21.99
2022-11-29T04:52:53.823Z,20.75
2022-11-29T04:55:43.840Z,21.23
2022-11-29T04:58:35.483Z,21.50
2022-11-29T05:01:25.311Z,21.57
2022-11-29T05:04:22.796Z,22.08
2022-11-29T05:14:36.759Z,21.43
2022-11-29T05:17:37.810Z,21.23
2022-11-29T05:20:35.693Z,21.93
2022-11-29T05:23:35.872Z,22.20
2022-11-29T05:26:19.887Z,22.37
2022-11-29T05:29:09.829Z,22.14
2022-11-29T05:42:45.860Z,22.16
2022-11-29T05:45:30.653Z,23.65
2022-11-29T05:48:21.812Z,22.39
2022-11-29T05:51:11.061Z,23.25
2022-11-29T05:54:06.791Z,23.06
2022-11-29T06:08:04.833Z,23.23
2022-11-29T06:10:51.461Z,23.07
2022-11-29T06:13:58.803Z,23.18
2022-11-29T06:16:57.995Z,22.68
2022-11-29T06:20:18.797Z,21.89
2022-11-29T06:23:20.972Z,22.55
2022-11-29T06:36:25.753Z,23.76
2022-11-29T06:39:08.776Z,23.02
2022-11-29T06:41:42.144Z,23.76
2022-11-29T06:44:16.776Z,23.18
2022-11-29T06:47:05.045Z,23.13
2022-11-29T07:03:51.824Z,23.55
2022-11-29T07:06:28.022Z,22.97
2022-11-29T07:09:06.772Z,23.79
2022-11-29T07:11:42.328Z,23.05
2022-11-29T07:14:16.791Z,23.55
2022-11-29T07:17:05.981Z,23.87
2022-11-29T07:30:16.740Z,22.19
2022-11-29T07:33:11.818Z,22.13
2022-11-29T07:35:59.397Z,21.63
2022-11-29T07:38:56.782Z,21.46
2022-11-29T07:41:43.824Z,22.53
2022-11-29T07:55:00.738Z,21.42
2022-11-29T07:57:40.823Z,21.37
2022-11-29T08:00:15.597Z,22.43
2022-11-29T08:02:49.834Z,21.85
2022-11-29T08:05:23.171Z,21.50
2022-11-29T08:07:57.343Z,21.76
2022-11-29T08:24:34.740Z,22.66
2022-11-29T08:27:14.783Z,22.19
2022-11-29T08:29:47.963Z,22.74
2022-11-29T08:32:14.677Z,22.83
2022-11-29T08:34:54.853Z,22.50
2022-11-29T08:37:28.082Z,21.65
2022-11-29T08:50:23.753Z,21.98
2022-11-29T08:53:04.744Z,22.07
2022-11-29T08:55:40.665Z,22.41
2022-11-29T08:58:16.826Z,21.31
2022-11-29T09:00:50.067Z,22.44
2022-11-29T09:03:23.758Z,22.54
2022-11-29T09:16:39.851Z,22.33
2022-11-29T09:19:14.080Z,22.13
2022-11-29T09:21:53.776Z,22.95
2022-11-29T09:24:26.940Z,22.62
2022-11-29T09:27:06.755Z,22.43
2022-11-29T09:43:56.722Z,22.55
2022-11-29T09:46:57.228Z,22.15
2022-11-29T09:50:03.292Z,21.76
2022-11-29T09:52:58.731Z,22.43
2022-11-29T09:55:49.255Z,22.25
2022-11-29T09:58:35.737Z,20.92
2022-11-29T10:08:55.720Z,21.86
2022-11-29T10:11:45.901Z,21.20
2022-11-29T10:14:26.646Z,21.39
2022-11-29T10:17:21.757Z,21.43
2022-11-29T10:20:04.594Z,20.48
2022-11-29T10:22:51.758Z,20.57
2022-11-29T10:36:08.757Z,19.15
2022-11-29T10:38:44.404Z,18.55
2022-11-29T10:41:25.764Z,18.98
2022-11-29T10:44:00.054Z,18.85
2022-11-29T10:46:39.737Z,18.82
2022-11-29T10:49:18.228Z,18.53
2022-11-29T11:02:26.701Z,17.57
2022-11-29T11:05:07.803Z,18.16
2022-11-29T11:07:41.077Z,17.83
2022-11-29T11:10:31.722Z,18.04
2022-11-29T11:13:20.071Z,18.44
2022-11-29T11:16:05.428Z,18.38
2022-11-29T11:18:40.944Z,19.12
2022-11-29T11:31:30.507Z,19.47
2022-11-29T11:34:35.736Z,19.98
2022-11-29T11:37:21.817Z,20.32
2022-11-29T11:40:31.827Z,20.13
2022-11-29T11:43:04.984Z,20.59
2022-11-29T11:56:06.685Z,20.86
2022-11-29T11:58:56.727Z,20.44
2022-11-29T12:01:37.154Z,20.19
2022-11-29T12:04:23.725Z,20.36
2022-11-29T12:07:02.386Z,19.81
2022-11-29T12:23:41.717Z,19.89
2022-11-29T12:26:49.031Z,20.29
2022-11-29T12:29:26.712Z,19.21
2022-11-29T12:32:22.453Z,19.04
2022-11-29T12:35:37.705Z,19.75
2022-11-29T12:38:43.459Z,19.86
2022-11-29T12:51:50.683Z,20.94
2022-11-29T12:54:58.716Z,20.64
2022-11-29T12:57:44.327Z,20.41
2022-11-29T13:00:27.696Z,20.88
2022-11-29T13:03:19.456Z,20.55
2022-11-29T13:16:40.693Z,22.68
2022-11-29T13:19:31.779Z,22.54
2022-11-29T13:22:19.868Z,22.55
2022-11-29T13:25:06.781Z,22.68
2022-11-29T13:27:55.267Z,22.88
2022-11-29T13:44:36.741Z,23.07
2022-11-29T13:47:13.839Z,22.49
2022-11-29T13:50:01.718Z,22.93
2022-11-29T13:52:40.509Z,21.77
2022-11-29T13:55:27.722Z,23.26
2022-11-29T13:58:17.370Z,22.37
2022-11-29T14:11:27.666Z,23.11
2022-11-29T14:14:13.677Z,23.86
2022-11-29T14:16:53.153Z,23.17
2022-11-29T14:19:36.808Z,23.95
2022-11-29T14:22:27.447Z,23.57
2022-11-29T14:36:08.664Z,23.12
2022-11-29T14:39:02.719Z,23.54
2022-11-29T14:41:55.288Z,24.13
2022-11-29T14:44:41.093Z,23.61
2022-11-29T14:47:26.870Z,24.16
2022-11-29T15:03:54.738Z,25.68
2022-11-29T15:06:30.722Z,26.18
2022-11-29T15:09:18.678Z,25.30
2022-11-29T15:12:00.096Z,26.21
2022-11-29T15:14:56.681Z,26.96
2022-11-29T15:17:41.507Z,27.66
2022-11-29T15:30:42.694Z,29.05
2022-11-29T15:33:29.664Z,28.54
2022-11-29T15:36:08.009Z,28.16
2022-11-29T15:38:50.715Z,28.70
2022-11-29T15:41:29.227Z,27.93
2022-11-29T15:44:12.677Z,28.27
2022-11-29T15:57:32.680Z,29.14
2022-11-29T16:00:11.753Z,29.48
2022-11-29T16:02:57.663Z,29.05
2022-11-29T16:05:35.121Z,28.78
2022-11-29T16:08:23.679Z,29.17
2022-11-29T16:25:17.616Z,28.78
2022-11-29T16:28:00.680Z,28.40
2022-11-29T16:30:40.352Z,28.81
2022-11-29T16:33:28.736Z,29.00
2022-11-29T16:36:13.320Z,29.06
2022-11-29T16:38:59.675Z,29.23
2022-11-29T16:52:31.677Z,30.36
2022-11-29T16:55:05.558Z,30.73
2022-11-29T16:57:39.659Z,30.14
2022-11-29T17:00:24.539Z,29.58
2022-11-29T17:03:04.640Z,32.29
2022-11-29T17:16:50.690Z,30.34
2022-11-29T17:19:24.643Z,32.09
2022-11-29T17:21:58.658Z,31.87
2022-11-29T17:24:32.014Z,32.73
2022-11-29T17:27:06.190Z,30.38
2022-11-29T17:29:39.835Z,31.43
2022-11-29T17:32:14.667Z,30.59
2022-11-29T17:45:24.660Z,33.17
2022-11-29T17:48:00.637Z,32.83
2022-11-29T17:50:34.640Z,32.76
2022-11-29T17:53:07.862Z,32.76
2022-11-29T17:55:42.637Z,32.28
2022-11-29T17:58:15.932Z,32.88
2022-11-29T18:11:13.616Z,34.08
2022-11-29T18:13:53.632Z,33.66
2022-11-29T18:16:30.380Z,34.37
2022-11-29T18:19:12.657Z,34.41
2022-11-29T18:21:46.444Z,34.50
2022-11-29T18:24:20.657Z,34.97
2022-11-29T18:38:06.420Z,35.46
2022-11-29T18:40:25.802Z,35.04
2022-11-29T18:42:58.641Z,35.15
2022-11-29T18:45:35.327Z,34.28
2022-11-29T18:48:15.688Z,34.40
2022-11-29T18:50:48.839Z,35.06
2022-11-29T18:53:23.672Z,35.58
2022-11-29T19:03:51.608Z,34.70
2022-11-29T19:06:39.260Z,32.68
2022-11-29T19:09:17.496Z,33.80
2022-11-29T19:11:57.643Z,34.25
2022-11-29T19:14:30.790Z,33.41
2022-11-29T19:17:04.692Z,33.00
2022-11-29T19:19:37.913Z,33.30
2022-11-29T19:32:27.589Z,31.97
2022-11-29T19:35:08.730Z,31.46
2022-11-29T19:37:41.825Z,30.68
2022-11-29T19:40:15.619Z,30.66
2022-11-29T19:42:49.584Z,29.46
2022-11-29T19:59:12.676Z,30.19
2022-11-29T20:01:45.865Z,29.56
2022-11-29T20:04:19.629Z,28.47
2022-11-29T20:06:52.777Z,28.65
2022-11-29T20:09:26.627Z,28.71
2022-11-29T20:11:59.934Z,28.48
2022-11-29T20:14:35.619Z,28.40
2022-11-29T20:24:22.585Z,27.54
2022-11-29T20:27:02.641Z,26.87
2022-11-29T20:29:37.893Z,27.87
2022-11-29T20:32:11.592Z,27.22
2022-11-29T20:34:46.036Z,27.58
2022-11-29T20:37:44.308Z,27.65
2022-11-29T20:51:39.607Z,27.05
2022-11-29T20:55:16.253Z,27.43
2022-11-29T20:59:01.660Z,26.05
2022-11-29T21:02:38.085Z,26.54
2022-11-29T21:20:01.595Z,22.47
2022-11-29T21:23:41.117Z,22.99
2022-11-29T21:27:24.598Z,22.12
2022-11-29T21:31:03.998Z,21.49
2022-11-29T21:34:47.866Z,21.44
2022-11-29T21:45:24.585Z,21.22
2022-11-29T21:49:07.605Z,21.55
2022-11-29T21:52:28.059Z,21.59
2022-11-29T21:56:11.585Z,21.31
2022-11-29T21:59:48.235Z,22.43
2022-11-29T22:13:35.559Z,21.54
2022-11-29T22:17:18.665Z,21.93
2022-11-29T22:20:26.572Z,20.99
2022-11-29T22:23:40.571Z,21.89
2022-11-29T22:39:00.556Z,22.72
2022-11-29T22:41:54.917Z,22.48
2022-11-29T22:44:37.848Z,21.95
2022-11-29T22:47:35.881Z,22.27
2022-11-29T22:50:10.809Z,22.09
2022-11-29T22:52:43.799Z,22.59
2022-11-29T23:05:55.820Z,21.97
2022-11-29T23:08:28.992Z,22.47
2022-11-29T23:11:02.815Z,21.76
2022-11-29T23:13:38.727Z,22.29
2022-11-29T23:16:15.855Z,21.83
2022-11-29T23:18:49.358Z,21.47
2022-11-29T23:31:39.880Z,22.21
2022-11-29T23:34:19.835Z,22.09
2022-11-29T23:36:53.478Z,22.10
2022-11-29T23:39:26.833Z,23.04
2022-11-29T23:42:00.024Z,22.30
2022-11-29T23:44:26.688Z,22.23
